Clermont, Canada
Current Conditions -  °F | °C
As of 1:00 PM on Thursday 23 Oct 2014 (Local Time) from CYBG Reporting Station
Few Clouds Few Clouds  
Wind Chill: 44°   Ceiling: Unl
Heat Index: 48°   Visibility: 25mi
Dew Point: 32°   Wind: 9mph
Humidity: 54%   Direction: 80°E
Pressure: 30.22"   Gusts: NA
Location:  47.68°N, 70.23°W
Report Text: CYBG 231700Z 08008KT 25SM FEW120 09/00 A3022 RMK AC2 SLP239
Loading
Personal Weather Stations






























Interactive Weather Map
Tropical Storm Tracking
New forecast layout! Learn more

10-Day Weather Forecast

Advertisements
Track Severe Weather on mobile